หน้าหลัก
METAR-TAF:

METAR-TAF

ท่าอากาศยาน :

Rand Airport

Germiston, แอฟริกาใต้

ละติจูด: 26-14-33S, ลองจิจูด: 028-09-04E, ความสูง: 1671 ม.

การสังเกตสภาพอากาศปัจจุบัน

รายงานได้ทำขึ้นเมื่อ 20 ชั่วโมงและ 22 นาทีที่แล้ว ณ เวลา 08:00 UTC
ลม 17 นอตจากตะวันตก/ตะวันตกเฉียงใต้
อุณหภูมิ 12°C
ความชื้น 40%
ความกดอากาศ 1030 hPa
ทัศนวิสัย 10 กม. หรือมากกว่า
ไม่มีเมฆต่ำกว่า 1,500 ม. และไม่มีเมฆคิวมูโลนิมบัส

METAR: FAGM 120800Z 24017KT CAVOK 12/M01 Q1030

เวลา: 06:22 (04:22 UTC)


TAF: หายไป

สังเกตการณ์สภาพอากาศและพยากรณ์อากาศของสนามบินมากกว่า 4000 แห่ง (รายงาน METAR และ TAF).

สถานีที่ดูได้จะแสดงไว้ด้วยจุดสีเหลืองและสีแดงบนแผนที่.

เลื่อนเมาส์ไปเหนือจุดเพื่อดูชื่อสถานี.

แล้วคลิกเพื่อดูสังเกตการณ์และการพยากรณ์สภาพอากาศ.

ในการเปลี่ยนแผนที่: คลิกที่ปุ่มสีเขียวที่มีกากบาทสีดำเพื่อซูมเข้า; ที่ปุ่มสีเขียวที่มีขีดเพื่อซูมออก; หรือที่ลูกศรสีเขียวเพื่อไปยังแผนที่ที่อยู่ติดกัน.


METAR-TAF: